Time;durP1;ratioP1;P1;durP2;ratioP2;P2;SDS_P1;SDS_P2;PMS_P1;PMS_P2;Temp;Humidity;BMP_temperature;BMP_pressure;BME280_temperature;BME280_humidity;BME280_pressure;Samples;Min_cycle;Max_cycle;Signal;HPM_P1;HPM_P2
2022/02/21 00:01:47;;;;;;;0.30;0.30;;;;;;;9.93;63.21;97769.00;4973958;28;20546;-79
2022/02/21 00:04:13;;;;;;;2.58;1.40;;;;;;;9.99;62.80;97776.53;4964426;28;20059;-79
2022/02/21 00:06:38;;;;;;;0.50;0.50;;;;;;;9.93;63.01;97755.22;4975576;28;20435;-79
2022/02/21 00:09:03;;;;;;;0.40;0.40;;;;;;;9.99;62.59;97745.50;4975393;28;20023;-78
2022/02/21 00:11:29;;;;;;;0.40;0.40;;;;;;;9.93;62.92;97740.53;4975692;28;20487;-78
2022/02/21 00:13:54;;;;;;;1.25;1.15;;;;;;;9.98;62.29;97715.34;4974008;28;20025;-79
2022/02/21 00:16:19;;;;;;;0.40;0.40;;;;;;;10.08;61.94;97715.03;4974880;28;20469;-79
2022/02/21 00:18:45;;;;;;;0.40;0.40;;;;;;;10.08;61.90;97702.09;4975096;28;20035;-78
2022/02/21 00:21:10;;;;;;;0.40;0.40;;;;;;;10.15;61.61;97713.94;4975148;28;20031;-79
2022/02/21 00:23:35;;;;;;;0.65;0.52;;;;;;;10.16;61.38;97718.25;4975034;28;20031;-79
2022/02/21 00:26:01;;;;;;;1.10;1.05;;;;;;;10.19;61.05;97681.88;4974740;28;20027;-79
2022/02/21 00:28:26;;;;;;;0.40;0.40;;;;;;;10.26;61.01;97696.34;4974994;28;20050;-79
2022/02/21 00:30:52;;;;;;;0.68;0.68;;;;;;;10.29;60.05;97675.50;4974880;28;20473;-79
2022/02/21 00:33:17;;;;;;;0.40;0.40;;;;;;;10.31;60.32;97671.16;4968987;28;20109;-79
2022/02/21 00:35:42;;;;;;;0.30;0.30;;;;;;;10.29;60.22;97662.56;4967505;28;20384;-79
2022/02/21 00:38:08;;;;;;;1.10;0.52;;;;;;;10.31;60.06;97663.38;4974818;28;20556;-79
2022/02/21 00:40:33;;;;;;;0.30;0.30;;;;;;;10.29;60.29;97667.75;4974789;28;20042;-79
2022/02/21 00:42:58;;;;;;;0.85;0.85;;;;;;;10.36;60.23;97642.50;4975005;28;20046;-79
2022/02/21 00:45:24;;;;;;;2.38;1.08;;;;;;;10.38;60.42;97648.47;4974747;28;20054;-79
2022/02/21 00:47:49;;;;;;;0.43;0.43;;;;;;;10.36;60.51;97658.88;4974409;28;20134;-79
2022/02/21 00:50:14;;;;;;;0.40;0.40;;;;;;;10.30;60.58;97651.34;4974609;28;20018;-79
2022/02/21 00:52:40;;;;;;;0.95;0.95;;;;;;;10.39;60.59;97638.03;4974476;28;20042;-79
2022/02/21 00:55:06;;;;;;;0.75;0.75;;;;;;;10.35;60.56;97627.84;4974261;28;20097;-79
2022/02/21 00:57:31;;;;;;;0.40;0.40;;;;;;;10.30;61.26;97635.81;4974284;28;20030;-79
2022/02/21 00:59:57;;;;;;;0.60;0.60;;;;;;;10.31;60.70;97647.84;4974730;28;20034;-79
2022/02/21 05:17:23;;;;;;;0.55;0.55;;;;;;;3.93;81.79;97638.09;5048585;23;20051;-79
2022/02/21 05:19:48;;;;;;;0.57;0.57;;;;;;;3.95;79.86;97638.94;4954994;28;20122;-79
2022/02/21 05:22:13;;;;;;;0.60;0.60;;;;;;;3.97;81.16;97662.84;4954992;29;20023;-79
2022/02/21 05:24:39;;;;;;;0.50;0.50;;;;;;;4.04;79.66;97672.16;4954896;28;20070;-79
2022/02/21 05:27:04;;;;;;;0.50;0.50;;;;;;;4.05;80.29;97689.22;4953390;29;20607;-79
2022/02/21 05:29:29;;;;;;;0.70;0.70;;;;;;;4.13;79.75;97692.56;4954251;29;20055;-75
2022/02/21 05:31:55;;;;;;;0.68;0.68;;;;;;;4.15;78.42;97690.81;4954762;28;20033;-76
2022/02/21 05:34:20;;;;;;;1.75;1.08;;;;;;;4.25;77.46;97702.69;4964205;28;20035;-76
2022/02/21 05:36:45;;;;;;;1.92;1.77;;;;;;;4.17;78.53;97696.81;4973716;28;20065;-75
2022/02/21 05:39:11;;;;;;;0.70;0.70;;;;;;;4.22;79.12;97696.75;4974033;28;20446;-75
2022/02/21 05:41:36;;;;;;;1.63;1.52;;;;;;;4.31;76.49;97705.19;4972524;28;20065;-75
2022/02/21 05:44:03;;;;;;;0.50;0.50;;;;;;;4.36;75.22;97687.22;4974086;28;20089;-73
2022/02/21 05:46:28;;;;;;;0.60;0.60;;;;;;;4.36;76.33;97690.63;4973714;28;20030;-78
2022/02/21 05:48:54;;;;;;;0.80;0.80;;;;;;;4.45;75.74;97692.25;4973789;28;20026;-76
2022/02/21 05:51:19;;;;;;;0.60;0.60;;;;;;;4.42;75.67;97683.72;4973862;28;20150;-77
2022/02/21 05:53:46;;;;;;;2.97;1.35;;;;;;;4.46;74.83;97677.69;4973713;28;20444;-77
2022/02/21 05:56:13;;;;;;;0.65;0.65;;;;;;;4.57;74.92;97669.00;4973431;28;20027;-78
2022/02/21 05:58:38;;;;;;;0.85;0.82;;;;;;;4.58;74.07;97695.50;4973580;28;20031;-76
2022/02/21 06:01:04;;;;;;;2.92;1.77;;;;;;;4.57;73.91;97709.19;4973654;28;20038;-76
2022/02/21 06:03:31;;;;;;;0.85;0.82;;;;;;;4.62;73.96;97727.94;4966362;28;20404;-77
2022/02/21 06:05:56;;;;;;;0.50;0.50;;;;;;;4.67;73.52;97715.91;4968205;28;20023;-77
2022/02/21 06:08:23;;;;;;;1.58;1.55;;;;;;;4.68;72.53;97699.66;4973526;28;20049;-76
2022/02/21 06:10:49;;;;;;;1.13;1.02;;;;;;;4.73;73.70;97674.78;4973407;28;20074;-76
2022/02/21 06:13:15;;;;;;;0.60;0.60;;;;;;;4.69;72.34;97693.66;4973438;28;20027;-76
2022/02/21 06:15:40;;;;;;;1.00;1.00;;;;;;;4.73;73.40;97714.97;4973148;28;20065;-76
2022/02/21 06:18:06;;;;;;;1.17;1.08;;;;;;;4.74;74.74;97709.84;4973265;28;20050;-76
2022/02/21 06:20:31;;;;;;;1.20;0.57;;;;;;;4.77;72.07;97717.50;4973196;28;20038;-76
2022/02/21 06:22:56;;;;;;;0.50;0.50;;;;;;;4.81;71.94;97728.59;4973097;28;20022;-76
2022/02/21 06:25:22;;;;;;;0.55;0.55;;;;;;;4.84;71.27;97738.81;4973093;28;20089;-77
2022/02/21 06:27:47;;;;;;;1.00;1.00;;;;;;;4.81;72.50;97726.00;4973062;28;20119;-77
2022/02/21 06:30:13;;;;;;;1.02;1.02;;;;;;;4.82;72.34;97715.72;4972774;28;20088;-77
2022/02/21 06:32:38;;;;;;;0.50;0.50;;;;;;;4.78;71.85;97733.75;4968750;28;20023;-77
2022/02/21 06:35:04;;;;;;;2.47;0.80;;;;;;;4.82;72.27;97736.25;4964954;28;20023;-76
2022/02/21 06:37:29;;;;;;;1.33;1.25;;;;;;;4.80;72.26;97763.66;4973019;28;20395;-76
2022/02/21 06:39:55;;;;;;;0.73;0.73;;;;;;;4.87;69.58;97765.28;4972938;28;20030;-76
2022/02/21 06:42:20;;;;;;;1.20;1.15;;;;;;;4.89;70.38;97753.28;4973134;28;20031;-76
2022/02/21 06:44:45;;;;;;;0.50;0.50;;;;;;;4.92;71.51;97762.66;4972930;28;20464;-77
2022/02/21 06:47:11;;;;;;;0.50;0.50;;;;;;;4.82;71.45;97767.03;4973076;28;20507;-77
2022/02/21 06:49:38;;;;;;;1.38;0.90;;;;;;;4.80;70.63;97770.50;4972809;28;20069;-76
2022/02/21 06:52:04;;;;;;;0.50;0.50;;;;;;;4.84;70.54;97780.72;4973037;28;20034;-77
2022/02/21 06:54:29;;;;;;;0.60;0.60;;;;;;;4.85;69.62;97787.56;4972772;28;20019;-77
2022/02/21 06:56:54;;;;;;;0.65;0.65;;;;;;;4.90;69.77;97785.78;4972780;28;20037;-77
2022/02/21 06:59:20;;;;;;;0.80;0.80;;;;;;;4.87;70.25;97787.53;4972979;28;20078;-77
2022/02/21 07:01:45;;;;;;;6.53;2.15;;;;;;;4.87;68.63;97792.66;4971771;28;20411;-77
2022/02/21 07:04:11;;;;;;;4.95;1.48;;;;;;;4.87;68.95;97796.06;4960129;28;20031;-76
2022/02/21 07:06:36;;;;;;;0.65;0.65;;;;;;;4.94;69.56;97803.72;4972654;28;20030;-77
2022/02/21 07:09:03;;;;;;;0.52;0.52;;;;;;;4.89;69.12;97807.19;4972885;28;20038;-77
2022/02/21 07:11:28;;;;;;;0.60;0.60;;;;;;;4.93;68.68;97809.69;4971625;28;20456;-77
2022/02/21 07:13:54;;;;;;;0.57;0.57;;;;;;;4.94;68.89;97819.13;4972858;28;20054;-77
2022/02/21 07:16:19;;;;;;;0.68;0.68;;;;;;;4.95;68.32;97818.25;4972388;28;20031;-77
2022/02/21 07:18:44;;;;;;;0.60;0.60;;;;;;;4.88;68.64;97828.59;4973034;28;20027;-77
2022/02/21 07:21:09;;;;;;;0.60;0.60;;;;;;;4.82;68.10;97826.06;4971402;28;20108;-77
2022/02/21 07:23:38;;;;;;;10.70;1.33;;;;;;;4.77;66.74;97835.53;4972669;28;20027;-77
2022/02/21 07:26:04;;;;;;;0.70;0.70;;;;;;;4.75;66.68;97842.41;4972422;28;20086;-77
2022/02/21 07:28:32;;;;;;;6.80;1.15;;;;;;;4.73;67.58;97848.41;4972773;28;20073;-78
2022/02/21 07:30:58;;;;;;;1.88;1.02;;;;;;;4.87;66.83;97852.53;4972493;28;20106;-77
2022/02/21 07:33:23;;;;;;;0.88;0.88;;;;;;;4.88;64.93;97859.38;4966463;28;20527;-78
2022/02/21 07:35:48;;;;;;;0.60;0.60;;;;;;;4.84;63.66;97844.88;4870355;28;20043;-79
2022/02/21 07:38:14;;;;;;;0.60;0.60;;;;;;;4.86;63.84;97866.22;4936062;29;20031;-80
2022/02/21 07:40:39;;;;;;;0.60;0.60;;;;;;;4.92;64.01;97865.31;4934723;29;20313;-79
2022/02/21 07:43:05;;;;;;;4.03;2.03;;;;;;;4.96;63.42;97863.56;4936094;29;20433;-79
2022/02/21 07:45:30;;;;;;;2.05;1.85;;;;;;;4.95;62.34;97874.72;4937543;29;20032;-80
2022/02/21 07:47:58;;;;;;;0.52;0.52;;;;;;;5.04;63.70;97869.50;4937425;29;20035;-79
2022/02/21 07:50:25;;;;;;;0.60;0.60;;;;;;;5.13;63.37;97874.53;4937598;29;20032;-79
2022/02/21 07:52:51;;;;;;;1.27;1.27;;;;;;;5.26;62.80;97881.22;4937368;29;20111;-79
2022/02/21 07:55:17;;;;;;;0.60;0.60;;;;;;;5.19;62.33;97879.59;4937410;29;20156;-79
2022/02/21 07:57:43;;;;;;;0.60;0.60;;;;;;;5.21;62.02;97893.25;4937292;29;20152;-79
2022/02/21 08:00:11;;;;;;;0.50;0.50;;;;;;;5.10;61.74;97897.66;4937353;29;20520;-79
2022/02/21 08:02:37;;;;;;;0.50;0.50;;;;;;;5.24;61.50;97895.78;4932726;29;20036;-79
2022/02/21 08:05:05;;;;;;;1.20;1.20;;;;;;;5.30;61.07;97903.41;4929304;29;20032;-79
2022/02/21 08:07:30;;;;;;;1.02;1.02;;;;;;;5.44;61.83;97900.69;4935538;29;20079;-79
2022/02/21 08:09:56;;;;;;;0.60;0.60;;;;;;;5.51;60.64;97911.75;4937241;29;20478;-79
2022/02/21 08:12:21;;;;;;;0.85;0.85;;;;;;;5.71;60.60;97914.94;4937138;29;20034;-79
2022/02/21 08:14:47;;;;;;;0.85;0.70;;;;;;;5.77;61.09;97909.72;4937048;29;20060;-79
2022/02/21 08:17:12;;;;;;;0.60;0.60;;;;;;;5.86;60.91;97919.03;4936757;29;20031;-79
2022/02/21 08:19:37;;;;;;;1.00;1.00;;;;;;;5.65;60.99;97917.56;4937020;29;20023;-79
2022/02/21 08:22:03;;;;;;;4.03;1.60;;;;;;;5.53;60.17;97925.44;4936939;29;20498;-79
2022/02/21 08:24:28;;;;;;;1.58;1.45;;;;;;;5.36;60.18;97929.03;4936842;29;20020;-80
2022/02/21 08:26:54;;;;;;;0.70;0.70;;;;;;;5.39;60.47;97929.00;4935402;29;20521;-80
2022/02/21 08:29:19;;;;;;;0.70;0.70;;;;;;;5.54;60.41;97927.13;4936812;29;20028;-80
2022/02/21 08:31:46;;;;;;;1.00;1.00;;;;;;;5.65;61.54;97941.53;4935790;29;20043;-80
2022/02/21 08:34:11;;;;;;;0.50;0.50;;;;;;;5.59;61.28;97951.06;4925578;29;20481;-79
2022/02/21 08:36:37;;;;;;;0.60;0.60;;;;;;;5.73;60.32;97944.03;4936545;29;20032;-79
2022/02/21 08:39:03;;;;;;;0.50;0.50;;;;;;;5.64;60.10;97939.84;4936662;29;20032;-79
2022/02/21 08:41:28;;;;;;;0.50;0.50;;;;;;;5.72;61.08;97942.34;4936949;29;20612;-79
2022/02/21 08:43:54;;;;;;;0.55;0.55;;;;;;;5.81;60.50;97943.94;4936430;29;20103;-79
2022/02/21 08:46:20;;;;;;;0.73;0.73;;;;;;;6.63;58.55;97934.25;4936426;29;20640;-79
2022/02/21 08:48:46;;;;;;;0.80;0.80;;;;;;;7.25;55.64;97914.25;4936542;29;20024;-79
2022/02/21 08:51:11;;;;;;;1.27;1.17;;;;;;;9.42;51.32;97913.63;4936336;29;20388;-79
2022/02/21 08:53:37;;;;;;;4.50;1.30;;;;;;;7.73;52.64;97916.75;4936146;29;20508;-79
2022/02/21 08:56:03;;;;;;;0.77;0.77;;;;;;;8.11;52.14;97934.00;4936068;29;20027;-79
2022/02/21 08:58:29;;;;;;;7.95;1.52;;;;;;;8.73;51.42;97933.47;4936317;29;20032;-79
2022/02/21 09:00:54;;;;;;;5.78;1.10;;;;;;;7.95;52.43;97935.22;4936202;29;20079;-79
2022/02/21 09:03:20;;;;;;;0.70;0.70;;;;;;;8.37;51.51;97959.28;4930415;29;20741;-79
2022/02/21 09:05:45;;;;;;;0.50;0.50;;;;;;;8.08;52.44;97949.56;4929372;29;20036;-79
2022/02/21 09:08:12;;;;;;;1.00;1.00;;;;;;;7.05;54.95;97967.88;4936045;29;20034;-79
2022/02/21 09:10:38;;;;;;;8.68;1.90;;;;;;;6.45;57.02;97968.81;4934679;29;20024;-79
2022/02/21 09:13:03;;;;;;;3.45;2.63;;;;;;;6.64;57.84;97977.13;4935904;29;20106;-79
2022/02/21 09:15:28;;;;;;;0.75;0.75;;;;;;;6.55;57.45;97966.97;4935681;29;20079;-79
2022/02/21 09:17:56;;;;;;;1.15;1.15;;;;;;;6.67;57.67;97967.63;4935865;29;20109;-79
2022/02/21 09:20:22;;;;;;;8.57;1.15;;;;;;;6.38;58.11;97965.50;4935781;29;20028;-79
2022/02/21 09:22:47;;;;;;;3.25;1.05;;;;;;;6.49;57.50;97977.34;4935811;29;20070;-79
2022/02/21 09:25:13;;;;;;;9.13;1.45;;;;;;;6.58;56.15;97966.94;4935787;29;20529;-79
2022/02/21 09:27:38;;;;;;;0.40;0.40;;;;;;;6.74;57.10;97978.69;4935732;29;20469;-80
2022/02/21 09:30:06;;;;;;;1.70;1.25;;;;;;;6.54;57.16;97986.69;4935724;29;20034;-79
2022/02/21 09:32:31;;;;;;;2.85;2.35;;;;;;;6.50;57.12;97989.34;4931283;29;20106;-80
2022/02/21 09:34:57;;;;;;;0.70;0.70;;;;;;;6.54;56.69;97966.13;4927663;29;20120;-80
2022/02/21 09:37:25;;;;;;;1.33;1.33;;;;;;;6.34;56.74;97981.00;4935338;29;20106;-79
2022/02/21 09:39:50;;;;;;;0.98;0.98;;;;;;;6.41;56.51;97965.44;4935618;29;20106;-79
2022/02/21 09:42:16;;;;;;;0.70;0.70;;;;;;;6.37;56.09;97983.50;4935630;29;20140;-80
2022/02/21 09:44:41;;;;;;;0.80;0.80;;;;;;;6.11;57.36;97965.88;4935924;29;20092;-80
2022/02/21 09:47:07;;;;;;;0.50;0.50;;;;;;;6.19;57.18;97982.06;4935209;29;20118;-80
2022/02/21 09:49:32;;;;;;;0.50;0.50;;;;;;;6.47;57.66;97977.34;4934118;29;20506;-80
2022/02/21 09:51:58;;;;;;;0.63;0.63;;;;;;;6.93;58.30;97971.50;4935346;29;20023;-80
2022/02/21 09:54:24;;;;;;;2.25;2.08;;;;;;;7.94;55.00;97983.38;4935363;29;20102;-80
2022/02/21 09:56:51;;;;;;;4.18;1.27;;;;;;;8.61;51.33;97954.44;4935049;29;20027;-80
2022/02/21 09:59:17;;;;;;;0.40;0.40;;;;;;;6.89;55.58;97975.84;4934099;29;20373;-80
2022/02/21 10:01:44;;;;;;;0.60;0.52;;;;;;;7.02;54.85;97965.38;4934548;29;20033;-80
2022/02/21 10:04:11;;;;;;;0.55;0.55;;;;;;;8.99;50.87;97961.25;4938214;29;20020;-80
2022/02/21 10:06:37;;;;;;;0.47;0.47;;;;;;;8.92;49.95;97960.56;4934812;29;20027;-80
2022/02/21 10:09:11;;;;;;;0.38;0.38;;;;;;;10.59;47.86;97948.19;4934975;29;20024;-80
2022/02/21 10:11:42;;;;;;;0.40;0.40;;;;;;;8.36;50.66;97969.59;4934996;29;20171;-80
2022/02/21 10:14:18;;;;;;;0.90;0.90;;;;;;;7.83;52.16;97963.84;4935004;29;20418;-80
2022/02/21 10:16:51;;;;;;;0.88;0.88;;;;;;;7.59;52.85;97990.94;4934742;29;20036;-80
2022/02/21 10:19:25;;;;;;;0.68;0.68;;;;;;;7.02;53.59;97968.78;4934702;29;20082;-80
2022/02/21 10:22:02;;;;;;;0.60;0.60;;;;;;;6.97;53.78;97978.31;4934789;29;20106;-80
2022/02/21 10:24:50;;;;;;;1.00;0.95;;;;;;;7.19;54.91;97971.06;4933367;29;20023;-80
2022/02/21 10:27:26;;;;;;;0.43;0.43;;;;;;;7.04;53.73;97976.47;4934445;29;20055;-78
2022/02/21 10:30:05;;;;;;;0.60;0.60;;;;;;;7.19;53.45;97976.22;4934636;29;20027;-80
2022/02/21 10:32:36;;;;;;;0.70;0.70;;;;;;;7.25;53.15;97981.25;4930624;29;20516;-79
2022/02/21 10:35:22;;;;;;;3.70;0.65;;;;;;;7.47;53.22;97977.41;4926823;29;20118;-80
2022/02/21 10:37:55;;;;;;;2.55;1.10;;;;;;;7.97;52.61;97980.72;4933393;29;20116;-80
2022/02/21 10:40:27;;;;;;;2.83;0.98;;;;;;;7.62;50.96;97976.28;4949382;29;20024;-80
2022/02/21 10:43:14;;;;;;;0.45;0.45;;;;;;;7.38;51.50;97967.28;4934700;29;20031;-79
2022/02/21 10:45:41;;;;;;;0.93;0.90;;;;;;;7.63;50.57;97961.66;4934522;29;20401;-80
2022/02/21 10:48:20;;;;;;;0.93;0.93;;;;;;;8.52;47.14;97959.81;4934876;29;20103;-80
2022/02/21 10:51:03;;;;;;;0.80;0.80;;;;;;;8.81;46.49;97957.41;4934727;29;20024;-80
2022/02/21 10:53:44;;;;;;;0.40;0.40;;;;;;;8.20;47.91;97963.94;4934740;29;20083;-80
2022/02/21 10:56:12;;;;;;;1.08;1.08;;;;;;;8.33;48.72;97965.38;4948898;28;20562;-80
2022/02/21 10:58:37;;;;;;;0.70;0.70;;;;;;;8.64;47.90;97959.53;4934691;29;20115;-80
2022/02/21 11:01:04;;;;;;;0.93;0.93;;;;;;;8.39;48.56;97973.00;4934748;29;20107;-80
2022/02/21 11:03:29;;;;;;;0.80;0.80;;;;;;;8.57;49.22;97983.81;4927903;29;20075;-80
2022/02/21 11:05:56;;;;;;;13.10;0.55;;;;;;;8.39;47.86;97960.09;4929537;29;20028;-80
2022/02/21 11:08:23;;;;;;;0.60;0.60;;;;;;;8.42;48.40;97915.31;4934541;29;20024;-80
2022/02/21 11:11:11;;;;;;;0.40;0.40;;;;;;;8.70;48.76;97949.91;4934419;29;20164;-80
2022/02/21 11:13:36;;;;;;;0.77;0.77;;;;;;;8.89;46.11;97945.13;4934534;29;20111;-80
2022/02/21 11:16:03;;;;;;;2.05;1.48;;;;;;;9.60;44.22;97927.78;4934636;29;20188;-80
2022/02/21 11:18:29;;;;;;;0.47;0.47;;;;;;;11.45;40.34;97912.44;4952774;29;20397;-80
2022/02/21 11:20:55;;;;;;;0.32;0.32;;;;;;;10.45;41.80;97925.28;4938083;29;20032;-79
2022/02/21 11:23:20;;;;;;;0.60;0.60;;;;;;;10.05;42.24;97931.63;4937920;29;20032;-79
2022/02/21 11:25:59;;;;;;;0.40;0.40;;;;;;;9.94;42.39;97920.75;4937765;29;20027;-79
2022/02/21 11:28:30;;;;;;;1.00;0.47;;;;;;;10.84;40.82;97916.28;4938001;29;20023;-79
2022/02/21 11:31:01;;;;;;;0.52;0.52;;;;;;;9.54;42.96;97933.97;4959655;23;20132;-66
2022/02/21 11:33:28;;;;;;;0.50;0.50;;;;;;;8.36;46.55;97930.88;4907628;29;20095;-66
2022/02/21 11:36:09;;;;;;;2.47;1.50;;;;;;;7.73;47.46;97937.38;4913197;29;20510;-66
2022/02/21 11:38:39;;;;;;;0.98;0.98;;;;;;;7.35;48.42;97939.00;4918941;29;20039;-66
2022/02/21 11:41:07;;;;;;;1.17;1.08;;;;;;;7.41;49.43;97946.63;4918651;29;20511;-67
2022/02/21 11:43:33;;;;;;;1.17;1.08;;;;;;;7.22;50.01;97950.41;4918658;29;20111;-72
2022/02/21 11:46:06;;;;;;;0.70;0.70;;;;;;;7.37;51.24;97944.97;4918517;29;20036;-72
2022/02/21 11:49:05;;;;;;;0.45;0.45;;;;;;;7.14;52.24;97932.50;4918863;29;20043;-72
2022/02/21 11:51:30;;;;;;;12.23;1.40;;;;;;;6.55;56.16;97964.38;4918565;29;20430;-73
2022/02/21 11:54:16;;;;;;;4.30;0.55;;;;;;;5.93;62.61;97996.06;4919018;29;20016;-68
2022/02/21 11:56:47;;;;;;;0.60;0.60;;;;;;;5.46;68.18;98006.00;4918189;29;20035;-67
2022/02/21 11:59:21;;;;;;;0.50;0.50;;;;;;;5.34;72.55;97996.72;4918353;29;20031;-67
2022/02/21 12:01:48;;;;;;;0.60;0.60;;;;;;;5.97;72.84;97985.75;4916935;29;20075;-67
2022/02/21 12:04:15;;;;;;;0.82;0.82;;;;;;;7.66;67.48;97961.59;4907179;29;20032;-68
2022/02/21 12:06:51;;;;;;;0.50;0.50;;;;;;;7.39;64.51;97958.66;4918071;29;20393;-68
2022/02/21 12:09:16;;;;;;;0.85;0.85;;;;;;;7.40;62.21;97960.38;4918243;29;20048;-68
2022/02/21 12:11:42;;;;;;;0.70;0.70;;;;;;;8.34;61.18;97956.72;4918253;29;20441;-68
2022/02/21 12:14:07;;;;;;;0.80;0.80;;;;;;;7.47;60.51;97956.78;4918155;29;20381;-68
2022/02/21 12:16:33;;;;;;;1.48;1.02;;;;;;;7.40;59.71;97944.91;4918019;29;20036;-68
2022/02/21 12:18:58;;;;;;;0.50;0.50;;;;;;;7.37;56.96;97932.09;4918008;29;20063;-68
2022/02/21 12:21:26;;;;;;;0.68;0.68;;;;;;;7.42;56.60;97940.56;4918253;29;20096;-68
2022/02/21 12:24:00;;;;;;;0.52;0.52;;;;;;;7.32;56.38;97935.63;4917844;29;20504;-68
2022/02/21 12:26:28;;;;;;;0.73;0.73;;;;;;;7.29;54.71;97938.25;4917819;29;20064;-67
2022/02/21 12:29:20;;;;;;;0.50;0.50;;;;;;;7.74;53.92;97931.38;4917151;29;20028;-67
2022/02/21 12:31:59;;;;;;;0.70;0.70;;;;;;;7.31;51.71;97924.47;4915605;29;20385;-66
2022/02/21 12:34:27;;;;;;;0.50;0.50;;;;;;;7.24;52.73;97922.88;4908400;29;20020;-66
2022/02/21 12:36:59;;;;;;;0.68;0.68;;;;;;;7.27;53.71;97921.97;4917626;29;20051;-66
2022/02/21 12:39:26;;;;;;;0.50;0.50;;;;;;;7.32;52.95;97910.72;4917789;29;20028;-71
2022/02/21 12:41:53;;;;;;;0.40;0.40;;;;;;;7.51;52.09;97928.41;4917743;29;20043;-73
2022/02/21 12:44:19;;;;;;;0.68;0.68;;;;;;;7.41;49.79;97899.38;4917463;29;20338;-73
2022/02/21 12:46:50;;;;;;;1.15;1.15;;;;;;;7.41;49.69;97900.22;4916164;29;20500;-73
2022/02/21 12:49:25;;;;;;;0.40;0.40;;;;;;;7.52;48.58;97881.13;4917694;29;20111;-73
2022/02/21 12:51:56;;;;;;;0.73;0.73;;;;;;;7.73;49.63;97890.97;4917703;29;20032;-72
2022/02/21 12:54:22;;;;;;;1.23;1.08;;;;;;;7.76;49.29;97883.19;4916171;29;20108;-73
2022/02/21 12:56:52;;;;;;;9.27;1.67;;;;;;;7.72;48.83;97886.72;4917341;29;20035;-73
2022/02/21 12:59:20;;;;;;;0.85;0.85;;;;;;;7.61;47.03;97871.47;4917465;29;20437;-73
2022/02/21 13:01:47;;;;;;;1.00;0.60;;;;;;;7.62;47.80;97898.94;4916378;29;20040;-72
2022/02/21 13:04:13;;;;;;;1.85;0.75;;;;;;;7.47;47.92;97899.25;4906346;29;20033;-72
2022/02/21 13:06:38;;;;;;;0.40;0.40;;;;;;;7.40;48.07;97898.53;4915739;29;20512;-73
2022/02/21 13:09:05;;;;;;;0.40;0.40;;;;;;;7.26;52.49;97900.53;4917282;29;20098;-66
2022/02/21 13:11:33;;;;;;;2.00;1.45;;;;;;;6.78;56.30;97908.25;4916915;29;20020;-66
2022/02/21 13:14:01;;;;;;;0.63;0.63;;;;;;;6.86;56.36;97916.66;4915778;29;20058;-66
2022/02/21 13:16:31;;;;;;;1.05;0.98;;;;;;;6.27;60.75;97940.78;4916712;29;20028;-66
2022/02/21 13:19:01;;;;;;;0.50;0.50;;;;;;;5.89;63.88;97899.25;4917110;29;20032;-66
2022/02/21 13:21:34;;;;;;;;;;;;;;;6.04;64.67;97905.94;4916293;29;20039;-66
2022/02/21 13:24:01;;;;;;;0.60;0.60;;;;;;;6.20;62.34;97887.75;4916774;29;20014;-66
2022/02/21 13:26:26;;;;;;;0.77;0.77;;;;;;;6.40;59.38;97880.56;4916597;29;20039;-66
2022/02/21 13:28:51;;;;;;;0.68;0.68;;;;;;;6.63;59.70;97869.91;4916912;29;20036;-66
2022/02/21 13:31:17;;;;;;;0.50;0.50;;;;;;;6.72;59.33;97882.63;4916513;29;20341;-73
2022/02/21 13:33:48;;;;;;;0.50;0.50;;;;;;;6.74;57.79;97880.84;4908154;29;20028;-66
2022/02/21 13:36:13;;;;;;;7.13;1.30;;;;;;;6.72;56.68;97856.88;4913618;29;20020;-72
2022/02/21 13:38:54;;;;;;;0.50;0.50;;;;;;;6.76;57.07;97873.94;4916610;29;20039;-72
2022/02/21 13:41:20;;;;;;;0.70;0.70;;;;;;;6.82;58.47;97868.72;4915860;29;20051;-72
2022/02/21 13:43:46;;;;;;;0.50;0.50;;;;;;;6.74;58.20;97874.84;4916505;29;20032;-73
2022/02/21 13:46:11;;;;;;;0.50;0.50;;;;;;;6.69;56.42;97877.50;4916499;29;20058;-73
2022/02/21 13:48:48;;;;;;;0.93;0.90;;;;;;;6.73;57.15;97879.16;4916573;29;20027;-66
2022/02/21 13:51:19;;;;;;;4.40;1.63;;;;;;;6.73;56.50;97878.31;4916296;29;20593;-66
2022/02/21 13:53:45;;;;;;;0.50;0.50;;;;;;;6.72;55.85;97871.44;4916303;29;20028;-66
2022/02/21 13:56:13;;;;;;;0.50;0.50;;;;;;;6.70;57.11;97874.06;4916259;29;20433;-66
2022/02/21 13:59:06;;;;;;;0.60;0.60;;;;;;;6.71;55.22;97870.59;4916116;29;20393;-66
2022/02/21 14:01:33;;;;;;;0.57;0.57;;;;;;;6.77;56.22;97870.50;4916177;29;20028;-66
2022/02/21 14:04:01;;;;;;;0.50;0.50;;;;;;;6.74;54.73;97880.84;4905670;29;20079;-71
2022/02/21 14:06:26;;;;;;;0.50;0.50;;;;;;;6.76;56.01;97879.09;4929360;29;20401;-67
2022/02/21 14:08:55;;;;;;;0.55;0.55;;;;;;;6.72;56.18;97881.75;4916387;29;20028;-67
2022/02/21 14:11:29;;;;;;;0.80;0.80;;;;;;;6.72;55.47;97874.91;4916011;29;20044;-67
2022/02/21 14:13:56;;;;;;;0.50;0.50;;;;;;;6.76;55.47;97879.09;4915928;29;20042;-71
2022/02/21 14:16:21;;;;;;;0.85;0.45;;;;;;;6.70;55.53;97874.06;4915946;29;20039;-70
2022/02/21 14:18:47;;;;;;;0.50;0.50;;;;;;;6.83;56.57;97865.25;4916033;29;20450;-70
2022/02/21 14:21:14;;;;;;;0.40;0.40;;;;;;;6.72;55.62;97867.16;4915984;29;20382;-67
2022/02/21 14:23:39;;;;;;;7.65;1.25;;;;;;;6.80;56.70;97867.88;4916226;29;20032;-67
2022/02/21 14:26:05;;;;;;;3.30;1.50;;;;;;;6.78;56.29;97861.91;4915927;29;20028;-67
2022/02/21 14:28:30;;;;;;;0.50;0.50;;;;;;;6.76;56.86;97876.50;4916239;29;20351;-67
2022/02/21 14:30:56;;;;;;;0.43;0.43;;;;;;;6.76;57.83;97862.78;4915574;29;20051;-67
2022/02/21 14:33:21;;;;;;;0.70;0.70;;;;;;;6.77;57.58;97870.50;4909924;29;20031;-67
2022/02/21 14:35:46;;;;;;;0.50;0.50;;;;;;;6.82;57.61;97858.41;4908971;29;20035;-67
2022/02/21 14:38:12;;;;;;;0.47;0.47;;;;;;;6.80;58.43;97855.00;4916110;29;20039;-70
2022/02/21 14:40:40;;;;;;;0.50;0.50;;;;;;;6.71;57.29;97839.72;4915597;29;20481;-66
2022/02/21 14:43:07;;;;;;;0.50;0.50;;;;;;;6.71;57.89;97852.56;4915752;29;20466;-68
2022/02/21 14:45:32;;;;;;;2.05;1.08;;;;;;;6.62;58.58;97827.88;4915884;29;20031;-66
2022/02/21 14:47:58;;;;;;;0.60;0.60;;;;;;;6.59;59.04;97834.78;4915541;29;20024;-66
2022/02/21 14:50:24;;;;;;;0.50;0.50;;;;;;;6.53;59.14;97824.63;4915725;29;20028;-72
2022/02/21 14:52:49;;;;;;;0.40;0.40;;;;;;;6.42;58.68;97817.06;4917861;29;20531;-73
2022/02/21 14:55:15;;;;;;;0.50;0.50;;;;;;;6.38;59.27;97800.84;4919503;29;20103;-72
2022/02/21 14:57:41;;;;;;;0.70;0.70;;;;;;;6.35;59.25;97816.31;4919286;29;20059;-73
2022/02/21 15:00:10;;;;;;;0.73;0.73;;;;;;;6.35;59.58;97815.47;4919366;29;20094;-72
2022/02/21 15:02:37;;;;;;;0.50;0.50;;;;;;;6.37;60.39;97817.13;4909525;29;20098;-67
2022/02/21 15:05:06;;;;;;;0.50;0.50;;;;;;;6.30;59.53;97807.84;4911296;29;20284;-73
2022/02/21 15:07:32;;;;;;;0.50;0.50;;;;;;;6.30;60.55;97807.84;4917948;29;20031;-72
2022/02/21 15:09:58;;;;;;;0.60;0.60;;;;;;;6.30;60.63;97801.84;4918903;29;20390;-72
2022/02/21 15:12:24;;;;;;;0.40;0.40;;;;;;;6.28;60.45;97814.72;4919116;29;20032;-67
2022/02/21 15:14:50;;;;;;;0.50;0.50;;;;;;;6.31;60.42;97809.53;4919189;29;20028;-66
2022/02/21 15:17:16;;;;;;;0.40;0.40;;;;;;;6.33;60.50;97812.91;4917831;29;20038;-67
2022/02/21 15:19:41;;;;;;;0.98;0.93;;;;;;;6.38;60.46;97799.97;4917718;29;20024;-72
2022/02/21 15:22:08;;;;;;;1.60;1.50;;;;;;;6.41;60.44;97805.06;4918983;29;20024;-66
2022/02/21 15:24:34;;;;;;;6.22;2.15;;;;;;;6.44;60.53;97785.28;4918942;29;20024;-70
2022/02/21 15:27:00;;;;;;;11.43;0.60;;;;;;;6.38;60.42;97795.69;4918610;29;20397;-67
2022/02/21 15:29:25;;;;;;;0.60;0.60;;;;;;;6.41;60.91;97790.47;4918807;29;20028;-67
2022/02/21 15:31:50;;;;;;;0.85;0.85;;;;;;;6.48;60.72;97790.38;4917351;29;20087;-72
2022/02/21 15:34:19;;;;;;;0.60;0.60;;;;;;;6.51;61.17;97790.31;4908429;29;20070;-67
2022/02/21 15:36:45;;;;;;;0.73;0.55;;;;;;;6.42;60.61;97781.03;4918668;29;20024;-71
2022/02/21 15:39:15;;;;;;;1.25;1.17;;;;;;;6.44;60.75;97775.00;4918846;29;20405;-67
2022/02/21 15:41:41;;;;;;;0.50;0.50;;;;;;;6.47;61.06;97778.38;4918680;29;20025;-73
2022/02/21 15:44:07;;;;;;;0.68;0.68;;;;;;;6.33;60.80;97787.19;4918581;29;20032;-70
2022/02/21 15:46:32;;;;;;;0.75;0.75;;;;;;;6.29;61.64;97775.28;4918539;29;20071;-67
2022/02/21 15:48:58;;;;;;;0.50;0.50;;;;;;;6.28;62.16;97783.84;4917281;29;20031;-66
2022/02/21 15:51:24;;;;;;;0.50;0.50;;;;;;;6.25;62.27;97791.63;4918399;29;20024;-66
2022/02/21 15:53:50;;;;;;;0.50;0.50;;;;;;;6.23;62.60;97767.63;4918443;29;20058;-67
2022/02/21 15:56:16;;;;;;;0.93;0.75;;;;;;;6.21;63.03;97771.13;4918114;29;20036;-67
2022/02/21 15:58:41;;;;;;;0.50;0.50;;;;;;;6.12;63.02;97769.56;4918153;29;20020;-72